Terminal Aerodrome Forecast
Issued by NWS

Home | Current Version | Previous Version | Text Only | Print | Product List | Glossary Off
Versions: 1 2 3 4 5 6 7 8 9 10 11 12 13 14 15 16 17

000
FTUS43 KMPX 302300
TAFAXN
TAF
KAXN 302337Z 3100/3124 35018G26KT P6SM OVC035
     FM310300 35017G24KT P6SM BKN040
     FM310600 35012KT P6SM SKC
     FM311200 02006KT P6SM SKC=

USA.gov is the U.S. government's official web portal to all federal, state and local government web resources and services.